Terminal Aerodrome Forecast
Issued by NWS Portland, OR

Home | Current Version | Previous Version | Text Only | Print | Product List | Glossary On
Versions: 1 2 3 4 5 6 7 8 9 10 11 12 13 14 15 16 17 18 19 20 21 22 23 24 25 26 27 28 29 30 31 32 33 34
000
FTUS46 KPQR 261902 AAA
TAFEUG
TAF AMD
KEUG 261902Z 2619/2718 VRB03KT 4SM BR BKN004
     FM262000 35005KT P6SM SKC
     FM270600 VRB03KT 5SM BR SCT003
     FM270800 00000KT 1/4SM FG OVC002
     FM271600 20003KT 1SM BR OVC005=

USA.gov is the U.S. government's official web portal to all federal, state and local government web resources and services.